Time;durP1;ratioP1;P1;durP2;ratioP2;P2;SDS_P1;SDS_P2;PMS_P1;PMS_P2;Temp;Humidity;BMP_temperature;BMP_pressure;BME280_temperature;BME280_humidity;BME280_pressure;Samples;Min_cycle;Max_cycle;Signal;HPM_P1;HPM_P2
2023/09/03 00:01:46;;;;;;;12.35;11.95;;;;;;;-141.02;100.00;39677.50;5114413;28;20239;-67
2023/09/03 00:04:14;;;;;;;12.30;11.90;;;;;;;-141.02;100.00;39631.47;5114067;28;20279;-66
2023/09/03 00:06:41;;;;;;;12.10;11.70;;;;;;;-141.02;100.00;39618.06;5114331;28;20648;-57
2023/09/03 00:09:08;;;;;;;12.38;11.98;;;;;;;-141.02;100.00;39619.97;5114017;28;20193;-58
2023/09/03 00:11:35;;;;;;;12.50;12.10;;;;;;;-141.02;100.00;39619.97;5113975;28;20280;-57
2023/09/03 00:14:02;;;;;;;12.50;12.10;;;;;;;-141.02;100.00;39596.97;5114088;28;20226;-58
2023/09/03 00:16:29;;;;;;;12.05;11.65;;;;;;;-141.02;100.00;39631.47;5113880;28;20691;-58
2023/09/03 00:18:56;;;;;;;12.55;12.15;;;;;;;-141.02;100.00;39602.72;5114108;28;20748;-67
2023/09/03 00:21:25;;;;;;;12.88;12.48;;;;;;;-141.02;100.00;39631.47;5114089;28;20197;-57
2023/09/03 00:23:52;;;;;;;12.73;12.32;;;;;;;-141.02;100.00;39608.47;5113688;28;20193;-67
2023/09/03 00:26:24;;;;;;;12.60;12.20;;;;;;;-141.02;100.00;39656.41;5113699;28;20233;-58
2023/09/03 00:28:51;;;;;;;12.38;11.98;;;;;;;-141.02;100.00;39627.66;5113891;28;20189;-57
2023/09/03 00:31:18;;;;;;;12.60;12.20;;;;;;;-141.02;100.00;39639.16;5113487;28;20196;-58
2023/09/03 00:33:45;;;;;;;12.70;12.30;;;;;;;-141.02;100.00;39604.63;5113740;28;20248;-57
2023/09/03 00:36:14;;;;;;;12.38;11.98;;;;;;;-141.02;100.00;39631.47;5113427;28;20285;-57
2023/09/03 00:38:42;;;;;;;12.65;12.25;;;;;;;-141.02;100.00;39616.13;5113222;28;20204;-58
2023/09/03 00:41:09;;;;;;;12.82;12.43;;;;;;;-141.02;100.00;39662.16;5113601;28;20199;-58
2023/09/03 00:43:37;;;;;;;12.75;12.35;;;;;;;-141.02;100.00;39654.50;5113625;28;20279;-58
2023/09/03 00:46:07;;;;;;;12.80;12.40;;;;;;;-141.02;100.00;39666.00;5113575;28;20659;-58
2023/09/03 00:48:35;;;;;;;12.70;12.30;;;;;;;-141.02;100.00;39677.50;5114203;28;20185;-57
2023/09/03 00:51:06;;;;;;;12.38;11.98;;;;;;;-141.02;100.00;39669.84;5113461;28;20281;-58
2023/09/03 00:53:35;;;;;;;12.43;12.02;;;;;;;-141.02;100.00;39621.91;5113037;28;20327;-67
2023/09/03 00:56:04;;;;;;;11.82;11.43;;;;;;;-141.02;100.00;39598.88;5113091;28;20652;-58
2023/09/03 00:58:36;;;;;;;11.80;11.40;;;;;;;-141.02;100.00;39566.28;5113076;28;20224;-67
2023/09/03 01:01:04;;;;;;;11.95;11.55;;;;;;;-141.02;100.00;39547.09;5113061;28;20197;-58
2023/09/03 01:03:32;;;;;;;12.75;12.35;;;;;;;-141.02;100.00;39595.03;5113279;28;20193;-67
2023/09/03 01:05:59;;;;;;;13.52;13.02;;;;;;;-141.02;100.00;39681.34;5113184;28;20193;-58
2023/09/03 01:08:27;;;;;;;14.02;13.52;;;;;;;-141.02;100.00;39723.53;5112928;28;20189;-57
2023/09/03 01:11:06;;;;;;;14.00;13.50;;;;;;;-141.02;100.00;39687.09;5113135;28;20224;-67
2023/09/03 01:13:42;;;;;;;13.40;13.00;;;;;;;-141.02;100.00;39708.19;5112715;28;20217;-58
2023/09/03 01:16:19;;;;;;;14.55;14.05;;;;;;;-141.02;100.00;39696.69;5113173;28;20231;-57
2023/09/03 01:18:48;;;;;;;14.68;14.18;;;;;;;-141.02;100.00;39733.13;5113089;28;20275;-67
2023/09/03 01:21:36;;;;;;;14.73;14.23;;;;;;;-141.02;100.00;39727.38;5113034;28;20199;-66
2023/09/03 01:24:24;;;;;;;14.40;13.90;;;;;;;-141.02;100.00;39765.75;5112999;28;20631;-58
2023/09/03 01:27:04;;;;;;;14.35;13.85;;;;;;;-141.02;100.00;39727.38;5112527;28;20710;-63
2023/09/03 01:29:33;;;;;;;14.27;13.77;;;;;;;-141.02;100.00;39742.72;5112622;28;20275;-66
2023/09/03 01:32:01;;;;;;;14.50;14.00;;;;;;;-141.02;100.00;39723.53;5112486;28;20279;-57
2023/09/03 01:34:29;;;;;;;14.15;13.65;;;;;;;-141.02;100.00;39769.56;5112439;28;20733;-64
2023/09/03 01:36:57;;;;;;;14.07;13.57;;;;;;;-141.02;100.00;39781.09;5112745;28;20201;-58
2023/09/03 01:39:24;;;;;;;13.95;13.45;;;;;;;-141.02;100.00;39761.91;5112492;28;20279;-66
2023/09/03 01:41:51;;;;;;;13.65;13.15;;;;;;;-141.02;100.00;39792.59;5112776;28;20658;-57
2023/09/03 01:44:18;;;;;;;13.63;13.13;;;;;;;-141.02;100.00;39806.03;5112734;28;20200;-66
2023/09/03 01:46:50;;;;;;;14.00;13.50;;;;;;;-141.02;100.00;39809.84;5112395;28;20644;-58
2023/09/03 01:49:29;;;;;;;13.80;13.30;;;;;;;-141.02;100.00;39804.09;5113695;28;20220;-67
2023/09/03 02:02:18;;;;;;;13.60;13.10;;;;;;;-141.02;100.00;39850.13;5014788;28;20191;-59
2023/09/03 02:04:45;;;;;;;13.15;12.75;;;;;;;-141.02;100.00;39792.59;5014032;28;20200;-57
2023/09/03 02:07:12;;;;;;;13.50;13.00;;;;;;;-141.02;100.00;39813.69;5013983;28;20228;-67
2023/09/03 02:09:39;;;;;;;13.00;12.60;;;;;;;-141.02;100.00;39807.94;5014304;28;20207;-60
2023/09/03 02:12:07;;;;;;;12.88;12.48;;;;;;;-141.02;100.00;39775.34;5013923;28;20211;-58
2023/09/03 02:14:34;;;;;;;12.63;12.23;;;;;;;-141.02;100.00;39769.56;5013703;28;20260;-58
2023/09/03 02:17:40;;;;;;;12.10;11.70;;;;;;;-141.02;100.00;39715.88;5013883;28;20252;-58
2023/09/03 02:20:11;;;;;;;11.77;11.38;;;;;;;-141.02;100.00;39677.50;5013733;28;20283;-58
2023/09/03 02:22:38;;;;;;;11.52;11.13;;;;;;;-141.02;100.00;39639.16;5013697;28;20188;-57
2023/09/03 02:25:08;;;;;;;11.90;11.50;;;;;;;-141.02;100.00;39685.19;5013842;28;20303;-57
2023/09/03 02:27:35;;;;;;;11.68;11.27;;;;;;;-141.02;100.00;39635.31;5013715;28;20233;-57
2023/09/03 02:30:58;;;;;;;;;;;;;;;;;;;;;
2023/09/03 02:33:36;;;;;;;11.10;10.80;;;;;;;-141.02;100.00;39602.72;4984208;28;20337;-58
2023/09/03 02:36:05;;;;;;;11.13;10.82;;;;;;;-141.02;100.00;39581.63;5013410;28;20277;-58
2023/09/03 02:39:19;;;;;;;11.10;10.80;;;;;;;-141.02;100.00;39547.09;5048293;28;20228;-66
2023/09/03 02:41:46;;;;;;;10.57;10.27;;;;;;;-141.02;100.00;39479.97;5073183;28;20572;-67
2023/09/03 02:44:13;;;;;;;10.40;10.10;;;;;;;-141.02;100.00;39412.84;5073195;28;20194;-66
2023/09/03 02:46:46;;;;;;;10.25;9.95;;;;;;;-141.02;100.00;39355.31;5073004;28;20198;-57
2023/09/03 02:49:13;;;;;;;10.30;10.00;;;;;;;-141.02;100.00;39336.13;5072843;28;20248;-57
2023/09/03 02:51:41;;;;;;;10.15;9.85;;;;;;;-141.02;100.00;39290.13;5072815;28;20289;-58
2023/09/03 02:54:53;;;;;;;;;;;;;;;;;;;;;
2023/09/03 02:57:27;;;;;;;10.20;9.90;;;;;;;-141.02;100.00;39228.75;5072146;28;20213;-57
2023/09/03 02:59:54;;;;;;;9.85;9.55;;;;;;;-141.02;100.00;39159.72;5072568;28;20198;-67
2023/09/03 03:02:21;;;;;;;9.80;9.50;;;;;;;-141.02;100.00;39132.88;5072549;28;20198;-57
2023/09/03 03:21:48;;;;;;;9.60;9.30;;;;;;;-141.02;100.00;38887.41;5052388;28;20731;-66
2023/09/03 03:30:59;;;;;;;9.13;8.88;;;;;;;-141.02;100.00;38818.38;5052048;28;20197;-58
2023/09/03 03:33:27;;;;;;;9.20;8.90;;;;;;;-141.02;100.00;38776.19;5052032;28;20234;-57
2023/09/03 03:35:54;;;;;;;9.25;8.95;;;;;;;-141.02;100.00;38768.53;5051976;28;20226;-57
2023/09/03 03:38:22;;;;;;;8.90;8.70;;;;;;;-141.02;100.00;38822.22;5052145;28;20768;-58
2023/09/03 03:40:49;;;;;;;8.77;8.57;;;;;;;-141.02;100.00;38872.06;5051913;28;20257;-57
2023/09/03 03:43:16;;;;;;;8.65;8.45;;;;;;;-141.02;100.00;38952.59;5051870;28;20195;-57
2023/09/03 03:45:43;;;;;;;8.48;8.27;;;;;;;-141.02;100.00;39052.31;5051833;28;20282;-57
2023/09/03 03:48:10;;;;;;;8.75;8.55;;;;;;;-141.02;100.00;39171.22;5051839;28;20191;-65
2023/09/03 03:50:37;;;;;;;8.90;8.70;;;;;;;-141.02;100.00;39269.00;5051786;28;20696;-57
2023/09/03 03:53:05;;;;;;;9.00;8.80;;;;;;;-141.02;100.00;39349.56;5051595;28;20306;-58
2023/09/03 03:55:33;;;;;;;8.65;8.45;;;;;;;-141.02;100.00;39374.50;5051608;28;20278;-57
2023/09/03 03:58:00;;;;;;;8.65;8.45;;;;;;;-141.02;100.00;39355.31;5051655;28;20190;-58
2023/09/03 04:00:28;;;;;;;8.00;7.80;;;;;;;-141.02;100.00;39418.59;5051576;28;20231;-57
2023/09/03 04:02:59;;;;;;;7.88;7.68;;;;;;;-141.02;100.00;39462.72;5051504;28;20689;-65
2023/09/03 04:05:26;;;;;;;7.80;7.60;;;;;;;-141.02;100.00;39560.53;5051460;28;20187;-57
2023/09/03 04:07:53;;;;;;;8.10;7.90;;;;;;;-141.02;100.00;39629.56;5051556;28;20215;-66
2023/09/03 04:10:20;;;;;;;8.10;7.90;;;;;;;-141.02;100.00;39750.41;5051340;28;20383;-60
2023/09/03 04:12:48;;;;;;;7.97;7.78;;;;;;;-141.02;100.00;39788.75;5051013;28;20197;-66
2023/09/03 04:15:16;;;;;;;7.90;7.70;;;;;;;-141.02;100.00;39838.63;5051225;28;20191;-57
2023/09/03 04:17:43;;;;;;;7.55;7.35;;;;;;;-141.02;100.00;39834.78;5051152;28;20273;-57
2023/09/03 04:20:12;;;;;;;7.88;7.68;;;;;;;-141.02;100.00;39896.16;5051154;28;20195;-66
2023/09/03 04:22:39;;;;;;;8.10;7.90;;;;;;;-141.02;100.00;40064.97;5051034;28;20191;-57
2023/09/03 04:25:07;;;;;;;8.20;8.00;;;;;;;-141.02;100.00;40103.31;5051108;28;20205;-57
2023/09/03 04:27:34;;;;;;;8.60;8.40;;;;;;;-141.02;100.00;40277.88;5051190;28;20226;-57
2023/09/03 04:30:04;;;;;;;10.45;10.15;;;;;;;-141.02;100.00;40525.34;5050942;28;20286;-57
2023/09/03 04:32:31;;;;;;;10.50;10.20;;;;;;;-141.02;100.00;40613.59;5050951;28;20227;-57
2023/09/03 04:34:58;;;;;;;9.90;9.60;;;;;;;-141.02;100.00;40650.06;5050805;28;20683;-57
2023/09/03 04:37:25;;;;;;;10.05;9.75;;;;;;;-141.02;100.00;40680.75;5050891;28;20292;-57
2023/09/03 04:39:52;;;;;;;10.30;10.00;;;;;;;-141.02;100.00;40690.34;5050806;28;20316;-57
2023/09/03 04:42:19;;;;;;;10.80;10.50;;;;;;;-141.02;100.00;40678.84;5050750;28;20313;-57
2023/09/03 04:44:46;;;;;;;10.48;10.18;;;;;;;-141.02;100.00;40696.09;5050987;28;20620;-57
2023/09/03 04:47:14;;;;;;;10.82;10.52;;;;;;;-141.02;100.00;40698.00;5050877;28;20282;-57
2023/09/03 04:49:41;;;;;;;11.10;10.80;;;;;;;-141.02;100.00;40717.19;5050678;28;20286;-57
2023/09/03 04:52:08;;;;;;;11.30;11.00;;;;;;;-141.02;100.00;40709.53;5050488;28;20235;-58
2023/09/03 04:54:35;;;;;;;11.50;11.10;;;;;;;-141.02;100.00;40713.38;5050431;28;20230;-57
2023/09/03 04:57:02;;;;;;;11.10;10.80;;;;;;;-141.02;100.00;40667.31;5050517;28;20227;-57
2023/09/03 04:59:29;;;;;;;11.77;11.38;;;;;;;-141.02;100.00;40579.06;5050451;28;20205;-65
2023/09/03 05:01:56;;;;;;;11.75;11.35;;;;;;;-141.02;100.00;40490.81;5050684;28;20288;-66
2023/09/03 05:04:25;;;;;;;11.82;11.43;;;;;;;-141.02;100.00;40452.44;5050389;28;20278;-57
2023/09/03 05:06:52;;;;;;;12.20;11.80;;;;;;;-141.02;100.00;40456.28;5094862;28;20200;-57
2023/09/03 05:09:18;;;;;;;12.45;12.05;;;;;;;-141.02;100.00;40360.38;5112916;28;20284;-57
2023/09/03 05:11:45;;;;;;;12.60;12.20;;;;;;;-141.02;100.00;40360.38;5113185;28;20284;-58
2023/09/03 05:14:12;;;;;;;13.00;12.60;;;;;;;-141.02;100.00;40322.00;5113124;28;20311;-58
2023/09/03 05:16:39;;;;;;;13.50;13.00;;;;;;;-141.02;100.00;40293.22;5113047;28;20228;-66
2023/09/03 05:19:07;;;;;;;13.70;13.20;;;;;;;-141.02;100.00;40310.50;5112763;28;20625;-57
2023/09/03 05:21:35;;;;;;;13.68;13.18;;;;;;;-141.02;100.00;40298.97;5113052;28;20269;-58
2023/09/03 05:24:02;;;;;;;13.32;12.82;;;;;;;-141.02;100.00;40348.88;5111824;28;20576;-57
2023/09/03 05:26:29;;;;;;;13.90;13.40;;;;;;;-141.02;100.00;40352.69;5112755;28;20209;-66
2023/09/03 05:28:56;;;;;;;13.60;13.10;;;;;;;-141.02;100.00;40343.09;5112669;28;20203;-57
2023/09/03 05:31:23;;;;;;;14.38;13.88;;;;;;;-141.02;100.00;40371.88;5112967;28;20280;-58
2023/09/03 05:33:50;;;;;;;14.55;13.95;;;;;;;-141.02;100.00;40358.47;5112754;28;20311;-58
2023/09/03 05:36:17;;;;;;;14.88;14.27;;;;;;;-141.02;100.00;40406.41;5112589;28;20199;-57
2023/09/03 05:38:46;;;;;;;14.68;14.07;;;;;;;-141.02;100.00;40392.97;5112558;28;20228;-58
2023/09/03 05:41:13;;;;;;;14.55;13.95;;;;;;;-141.02;100.00;40379.56;5112480;28;20284;-58
2023/09/03 05:43:40;;;;;;;14.68;14.07;;;;;;;-141.02;100.00;40433.28;5112503;28;20287;-66
2023/09/03 05:46:06;;;;;;;15.10;14.50;;;;;;;-141.02;100.00;40410.25;5112465;28;20193;-57
2023/09/03 05:48:33;;;;;;;15.40;14.75;;;;;;;-141.02;100.00;40456.28;5112539;28;20284;-62
2023/09/03 05:51:03;;;;;;;14.95;14.35;;;;;;;-141.02;100.00;40467.81;5112693;28;20266;-58
2023/09/03 05:53:31;;;;;;;15.27;14.68;;;;;;;-141.02;100.00;40517.69;5112278;28;20755;-63
2023/09/03 05:56:06;;;;;;;14.95;14.35;;;;;;;-141.02;100.00;40613.59;5112785;28;20571;-58
2023/09/03 05:58:33;;;;;;;14.65;14.05;;;;;;;-141.02;100.00;40573.31;5112378;28;20192;-57
2023/09/03 06:01:04;;;;;;;15.43;14.82;;;;;;;-141.02;100.00;40665.41;5112372;28;20230;-67
2023/09/03 06:03:31;;;;;;;16.13;15.43;;;;;;;-141.02;99.08;40588.66;5112555;28;20272;-58
2023/09/03 06:06:02;;;;;;;16.30;15.60;;;;;;;-141.02;98.65;40581.00;5112382;28;20189;-57
2023/09/03 06:08:29;;;;;;;16.42;15.73;;;;;;;-141.02;98.41;40582.91;5112282;28;20192;-57
2023/09/03 06:10:56;;;;;;;16.58;15.88;;;;;;;-141.02;98.87;40579.06;5112279;28;20284;-58
2023/09/03 06:13:25;;;;;;;15.80;15.10;;;;;;;-141.02;100.00;40567.56;5112514;28;20276;-57
2023/09/03 06:15:51;;;;;;;15.32;14.63;;;;;;;-141.02;99.30;40628.94;5112604;28;20316;-57
2023/09/03 06:18:18;;;;;;;15.52;14.82;;;;;;;-141.02;98.61;40625.13;5112469;28;20231;-57
2023/09/03 06:20:46;;;;;;;14.63;14.02;;;;;;;-141.02;100.00;40682.66;5112177;28;20193;-57
2023/09/03 06:23:15;;;;;;;15.18;14.57;;;;;;;-141.02;100.00;40678.84;5112395;28;20634;-58
2023/09/03 06:25:43;;;;;;;15.18;14.57;;;;;;;-141.02;100.00;40456.28;5112338;28;20197;-58
2023/09/03 06:28:10;;;;;;;15.30;14.70;;;;;;;-141.02;100.00;40753.66;5112180;28;20703;-57
2023/09/03 06:30:38;;;;;;;15.10;14.50;;;;;;;-141.02;100.00;40705.69;5112410;28;20274;-66
2023/09/03 06:33:06;;;;;;;15.32;14.73;;;;;;;-141.02;100.00;40650.06;5112292;28;20193;-57
2023/09/03 06:35:32;;;;;;;15.10;14.50;;;;;;;-141.02;100.00;40625.13;5113794;28;20225;-58
2023/09/03 06:38:00;;;;;;;15.52;14.93;;;;;;;-141.02;98.67;40648.13;5115851;28;20225;-66
2023/09/03 06:40:27;;;;;;;15.68;15.07;;;;;;;-141.02;96.52;40653.88;5115853;28;20282;-58
2023/09/03 06:42:54;;;;;;;16.08;15.48;;;;;;;-141.02;96.75;40625.13;5116388;28;20207;-58
2023/09/03 06:45:21;;;;;;;16.05;15.45;;;;;;;-141.02;95.39;40640.47;5115668;28;20201;-57
2023/09/03 06:47:50;;;;;;;16.45;15.75;;;;;;;-141.02;94.18;40655.81;5115662;28;20284;-58
2023/09/03 06:50:17;;;;;;;16.30;15.70;;;;;;;-141.02;94.29;40651.97;5115895;28;20284;-58
2023/09/03 06:52:44;;;;;;;16.40;15.70;;;;;;;-141.02;92.39;40655.81;5116146;28;20193;-58
2023/09/03 06:55:10;;;;;;;16.58;15.88;;;;;;;-141.02;92.55;40703.78;5115652;28;20229;-58
2023/09/03 06:57:37;;;;;;;16.35;15.65;;;;;;;-141.02;90.43;40709.53;5115448;28;20284;-58
2023/09/03 07:00:06;;;;;;;16.40;15.73;;;;;;;-141.02;89.98;40705.69;5115741;28;20281;-57
2023/09/03 07:02:33;;;;;;;17.50;16.80;;;;;;;-141.02;89.59;40759.41;5115303;28;20189;-66
2023/09/03 07:05:01;;;;;;;16.90;16.20;;;;;;;-141.02;89.44;40782.44;5115695;28;20199;-58
2023/09/03 07:07:28;;;;;;;17.38;16.67;;;;;;;-141.02;87.09;40778.59;5115208;28;20240;-58
2023/09/03 07:09:57;;;;;;;17.42;16.63;;;;;;;-141.02;85.31;40843.81;5115254;28;20289;-57
2023/09/03 07:12:24;;;;;;;16.92;16.23;;;;;;;-141.02;83.62;40868.78;5115116;28;20708;-63
2023/09/03 07:14:51;;;;;;;17.05;16.35;;;;;;;-141.02;82.58;40886.03;5115393;28;20255;-58
2023/09/03 07:17:18;;;;;;;16.92;16.13;;;;;;;-141.02;83.60;40968.53;5115462;28;20200;-66
2023/09/03 07:19:45;;;;;;;17.25;16.45;;;;;;;-141.02;80.46;40991.56;5115279;28;20199;-58
2023/09/03 07:22:13;;;;;;;17.17;16.38;;;;;;;-141.02;79.77;41141.22;5115234;28;20655;-58
2023/09/03 07:24:40;;;;;;;17.08;16.27;;;;;;;-141.02;77.62;41258.28;5114876;28;20246;-65
2023/09/03 07:27:07;;;;;;;17.17;16.38;;;;;;;-141.02;77.61;41361.91;5114980;28;20282;-66
2023/09/03 07:29:34;;;;;;;17.13;16.33;;;;;;;-141.02;76.91;41406.03;5115187;28;20193;-66
2023/09/03 07:32:01;;;;;;;18.30;17.50;;;;;;;-141.02;76.07;41530.75;5115058;28;20236;-57
2023/09/03 07:34:28;;;;;;;17.98;17.17;;;;;;;-141.02;73.48;41557.63;5114987;28;20283;-58
2023/09/03 07:36:55;;;;;;;18.17;17.38;;;;;;;-141.02;73.91;41597.94;5114967;28;20296;-58
2023/09/03 07:39:23;;;;;;;17.58;16.77;;;;;;;-141.02;74.32;41707.31;5114929;28;20224;-57
2023/09/03 07:41:50;;;;;;;17.48;16.67;;;;;;;-141.02;71.36;41690.03;5114619;28;20205;-57
2023/09/03 07:44:17;;;;;;;17.48;16.67;;;;;;;-141.02;71.52;41718.81;5114558;28;20288;-58
2023/09/03 07:46:44;;;;;;;16.90;16.13;;;;;;;-141.02;69.62;41772.56;5113715;28;20255;-57
2023/09/03 07:49:12;;;;;;;18.20;17.40;;;;;;;-141.02;69.27;41780.25;5114476;28;20737;-58
2023/09/03 07:51:39;;;;;;;18.17;17.38;;;;;;;-141.02;68.86;41730.34;5114438;28;20189;-67
2023/09/03 07:54:06;;;;;;;17.38;16.67;;;;;;;-141.02;68.76;41803.28;5114271;28;20193;-58
2023/09/03 07:56:35;;;;;;;18.05;17.35;;;;;;;-141.02;66.65;41868.53;5113493;28;20215;-57
2023/09/03 07:59:02;;;;;;;18.60;17.80;;;;;;;-141.02;65.15;41883.88;5114332;28;20193;-58
2023/09/03 08:01:29;;;;;;;18.52;17.73;;;;;;;-141.02;65.05;41895.38;5114143;28;20280;-57
2023/09/03 08:03:56;;;;;;;18.55;17.75;;;;;;;-141.02;63.43;41895.38;5114222;28;20193;-67
2023/09/03 08:06:23;;;;;;;18.85;18.05;;;;;;;-141.02;63.34;41906.91;5114434;28;20197;-66
2023/09/03 08:08:54;;;;;;;18.58;17.77;;;;;;;-141.02;63.01;41935.69;5114141;28;20651;-58
2023/09/03 08:11:21;;;;;;;19.05;18.25;;;;;;;-141.02;63.00;41972.16;5114458;28;20242;-58
2023/09/03 08:13:52;;;;;;;19.25;18.35;;;;;;;-141.02;62.81;41987.50;5114242;28;20219;-65
2023/09/03 08:16:19;;;;;;;19.40;18.50;;;;;;;-141.02;62.69;42014.38;5114243;28;20626;-67
2023/09/03 08:18:46;;;;;;;18.73;17.92;;;;;;;-141.02;62.62;41999.03;5114173;28;20272;-66
2023/09/03 08:21:13;;;;;;;19.02;18.13;;;;;;;-141.02;61.44;42016.31;5114123;28;20712;-58
2023/09/03 08:23:40;;;;;;;19.15;18.25;;;;;;;-141.02;61.11;42087.31;5113731;27;20667;-58
2023/09/03 08:26:07;;;;;;;19.23;18.33;;;;;;;-141.02;59.16;42071.97;5113801;28;20193;-58
2023/09/03 08:28:34;;;;;;;18.95;18.05;;;;;;;-141.02;59.52;42043.19;5113598;28;20250;-67
2023/09/03 08:31:03;;;;;;;18.95;18.05;;;;;;;-141.02;59.13;42064.28;5113619;28;20230;-63
2023/09/03 08:33:30;;;;;;;18.85;17.95;;;;;;;-141.02;58.61;42110.34;5113668;28;20284;-58
2023/09/03 08:35:57;;;;;;;18.27;17.48;;;;;;;-141.02;58.26;42133.38;5113785;28;20229;-58
2023/09/03 08:38:25;;;;;;;18.92;18.02;;;;;;;-141.02;58.28;42177.53;5113550;28;20573;-58
2023/09/03 08:40:52;;;;;;;18.88;17.98;;;;;;;-141.02;57.99;42152.56;5113781;28;20219;-65
2023/09/03 08:43:21;;;;;;;18.60;17.70;;;;;;;-141.02;56.37;42129.53;5113719;28;20192;-58
2023/09/03 08:45:53;;;;;;;18.92;18.02;;;;;;;-141.02;56.43;42164.09;5113363;28;20189;-57
2023/09/03 08:48:22;;;;;;;18.70;17.80;;;;;;;-141.02;55.14;42166.00;5113682;28;20269;-67
2023/09/03 08:50:49;;;;;;;18.50;17.60;;;;;;;-141.02;55.31;42252.38;5113230;28;20196;-58
2023/09/03 08:53:18;;;;;;;18.98;18.08;;;;;;;-141.02;55.29;42265.81;5113453;28;20567;-58
2023/09/03 08:55:45;;;;;;;19.40;18.40;;;;;;;-141.02;53.91;42260.06;5113383;28;20690;-58
2023/09/03 08:58:13;;;;;;;18.60;17.70;;;;;;;-141.02;54.42;42398.25;5112952;28;20193;-58
2023/09/03 09:00:41;;;;;;;18.88;17.98;;;;;;;-141.02;53.61;42388.66;5113706;28;20197;-66
2023/09/03 09:03:12;;;;;;;18.70;17.88;;;;;;;-141.02;53.31;42300.38;5113008;28;20228;-67
2023/09/03 09:05:42;;;;;;;18.52;17.63;;;;;;;-141.02;53.91;42317.66;5113027;28;20203;-58
2023/09/03 09:08:09;;;;;;;18.48;17.58;;;;;;;-141.02;54.12;42325.31;5113513;28;20229;-67
2023/09/03 09:10:43;;;;;;;18.75;17.85;;;;;;;-141.02;53.49;42294.63;5113127;28;20292;-58
2023/09/03 09:13:13;;;;;;;18.00;17.10;;;;;;;-141.02;52.90;42375.22;5113157;28;20559;-59
2023/09/03 09:15:42;;;;;;;18.25;17.35;;;;;;;-141.02;51.54;42327.25;5113024;28;20225;-58
2023/09/03 09:18:09;;;;;;;18.80;17.90;;;;;;;-141.02;51.12;42386.75;5113134;28;20193;-58
2023/09/03 09:20:40;;;;;;;18.45;17.55;;;;;;;-141.02;50.35;42357.94;5113025;28;20216;-58
2023/09/03 09:23:07;;;;;;;18.60;17.70;;;;;;;-141.02;50.06;42286.94;5112800;28;20272;-58
2023/09/03 09:25:36;;;;;;;18.17;17.27;;;;;;;-141.02;51.34;42267.75;5113182;28;20205;-66
2023/09/03 09:28:10;;;;;;;18.77;17.88;;;;;;;-141.02;50.90;42260.06;5112704;28;20232;-59
2023/09/03 09:30:37;;;;;;;18.50;17.60;;;;;;;-141.02;51.25;42279.25;5112677;28;20631;-67
2023/09/03 09:33:05;;;;;;;18.02;17.13;;;;;;;-141.02;50.76;42325.31;5112533;28;20197;-67
2023/09/03 09:35:33;;;;;;;18.30;17.40;;;;;;;-141.02;50.67;42329.16;5112711;28;20232;-61
2023/09/03 09:38:06;;;;;;;18.20;17.30;;;;;;;-141.02;50.24;42381.00;5112489;28;20235;-64
2023/09/03 09:40:34;;;;;;;18.25;17.35;;;;;;;-141.02;49.42;42478.88;5112553;28;20276;-59
2023/09/03 09:43:04;;;;;;;18.65;17.67;;;;;;;-141.02;47.47;42394.41;5112449;28;20673;-67
2023/09/03 09:45:32;;;;;;;18.60;17.70;;;;;;;-141.02;48.99;42325.31;5112679;28;20239;-58
2023/09/03 09:48:06;;;;;;;18.63;17.73;;;;;;;-141.02;49.03;42323.41;5112375;28;20758;-59
2023/09/03 09:50:34;;;;;;;18.50;17.60;;;;;;;-141.02;48.48;42336.84;5112483;28;20661;-67
2023/09/03 09:53:01;;;;;;;18.20;17.30;;;;;;;-141.02;48.69;42390.59;5112674;28;20277;-58
2023/09/03 09:55:32;;;;;;;17.35;16.55;;;;;;;-141.02;48.01;42365.63;5112574;28;20220;-58
2023/09/03 09:57:59;;;;;;;17.17;16.27;;;;;;;-141.02;47.48;42363.72;5112727;28;20219;-58
2023/09/03 10:00:33;;;;;;;16.65;15.85;;;;;;;-141.02;47.42;42382.91;5112231;28;20228;-58
2023/09/03 10:03:00;;;;;;;17.20;16.30;;;;;;;-141.02;46.24;42446.25;5112348;28;20204;-67
2023/09/03 10:05:27;;;;;;;17.67;16.77;;;;;;;-141.02;45.58;42490.41;5112455;28;20193;-67
2023/09/03 10:07:55;;;;;;;17.63;16.73;;;;;;;-141.02;45.36;42475.03;5112244;28;20312;-59
2023/09/03 10:10:22;;;;;;;17.60;16.70;;;;;;;-141.02;45.55;42494.25;5113539;28;20231;-58
2023/09/03 10:12:50;;;;;;;17.20;16.38;;;;;;;-141.02;46.09;42452.00;5116321;28;20750;-58
2023/09/03 10:15:17;;;;;;;17.90;17.00;;;;;;;-141.02;46.58;42427.06;5116489;28;20252;-58
2023/09/03 10:17:52;;;;;;;17.55;16.65;;;;;;;-141.02;46.76;42402.09;5116214;28;20280;-58
2023/09/03 10:20:21;;;;;;;17.75;16.85;;;;;;;-141.02;46.38;42459.69;5116346;28;20262;-59
2023/09/03 10:22:51;;;;;;;17.30;16.40;;;;;;;-141.02;46.17;42436.66;5116123;28;20233;-58
2023/09/03 10:25:22;;;;;;;17.30;16.40;;;;;;;-141.02;46.66;42459.69;5116155;28;20642;-61
2023/09/03 10:27:56;;;;;;;17.35;16.45;;;;;;;-141.02;45.25;42432.81;5116186;28;20793;-58
2023/09/03 10:30:29;;;;;;;17.05;16.15;;;;;;;-141.02;45.48;42482.72;5116103;28;20197;-59
2023/09/03 10:32:58;;;;;;;17.60;16.70;;;;;;;-141.02;45.74;42509.59;5115992;28;20725;-58
2023/09/03 10:35:25;;;;;;;17.45;16.55;;;;;;;-141.02;45.90;42517.28;5116087;28;20263;-67
2023/09/03 10:37:52;;;;;;;17.70;16.80;;;;;;;-141.02;46.28;42565.25;5116151;28;20276;-58
2023/09/03 10:40:21;;;;;;;17.75;16.85;;;;;;;-141.02;45.08;42513.44;5116159;27;20250;-66
2023/09/03 10:42:48;;;;;;;17.55;16.65;;;;;;;-141.02;45.25;42471.19;5115847;28;20189;-68
2023/09/03 10:45:18;;;;;;;17.40;16.50;;;;;;;-141.02;45.51;42532.63;5115685;28;20280;-59
2023/09/03 10:47:59;;;;;;;17.45;16.55;;;;;;;-141.02;46.88;42544.16;5116319;27;20217;-58
2023/09/03 10:50:41;;;;;;;17.58;16.77;;;;;;;-141.02;45.71;42555.66;5115634;28;20596;-67
2023/09/03 10:53:09;;;;;;;17.77;16.88;;;;;;;-141.02;45.71;42551.81;5115579;28;20182;-58
2023/09/03 10:55:36;;;;;;;17.63;16.83;;;;;;;-141.02;46.12;42152.56;5115703;28;20228;-58
2023/09/03 10:58:31;;;;;;;17.50;16.70;;;;;;;-141.02;46.61;42578.69;5115764;28;20189;-58
2023/09/03 11:01:19;;;;;;;17.73;16.85;;;;;;;-141.02;46.03;42538.38;5115692;28;20197;-68
2023/09/03 11:03:46;;;;;;;17.60;16.80;;;;;;;-141.02;46.69;42563.34;5115586;28;20204;-64
2023/09/03 11:06:18;;;;;;;17.90;17.00;;;;;;;-141.02;45.54;42582.53;5115625;28;20197;-58
2023/09/03 11:08:45;;;;;;;17.15;16.33;;;;;;;-141.02;45.02;42546.06;5115797;27;20202;-59
2023/09/03 11:11:18;;;;;;;17.80;16.90;;;;;;;-141.02;44.98;42603.66;5115531;28;20284;-68
2023/09/03 11:13:50;;;;;;;17.48;16.58;;;;;;;-141.02;44.58;42578.69;5115721;28;20189;-67
2023/09/03 11:16:18;;;;;;;17.48;16.58;;;;;;;-141.02;44.78;42574.88;5115398;28;20228;-58
2023/09/03 11:18:49;;;;;;;17.38;16.48;;;;;;;-141.02;45.11;42565.25;5115287;28;20288;-58
2023/09/03 11:21:17;;;;;;;17.48;16.58;;;;;;;-141.02;45.59;42183.28;5114086;28;20754;-63
2023/09/03 11:23:59;;;;;;;17.25;16.35;;;;;;;-141.02;45.83;42158.34;5114817;28;20301;-58
2023/09/03 11:26:26;;;;;;;17.30;16.40;;;;;;;-141.02;45.96;42142.97;5113371;28;20584;-58
2023/09/03 11:28:53;;;;;;;17.58;16.67;;;;;;;-141.02;46.20;42613.25;5114933;28;20682;-66
2023/09/03 11:31:22;;;;;;;17.58;16.67;;;;;;;-141.02;45.97;42619.00;5115375;28;20223;-59
2023/09/03 11:33:50;;;;;;;17.65;16.75;;;;;;;-141.02;45.71;42398.25;5115052;28;20280;-60
2023/09/03 11:36:21;;;;;;;17.73;16.83;;;;;;;-141.02;45.33;42617.09;5114747;28;20763;-58
2023/09/03 11:38:48;;;;;;;17.40;16.50;;;;;;;-141.02;45.34;42269.66;5115037;28;20612;-58
2023/09/03 11:41:17;;;;;;;17.45;16.55;;;;;;;-141.02;45.82;42240.88;5114570;28;20196;-58
2023/09/03 11:43:43;;;;;;;17.88;16.98;;;;;;;-141.02;46.19;42227.44;5114597;28;20625;-58
2023/09/03 11:46:13;;;;;;;17.30;16.40;;;;;;;-141.02;47.18;42237.03;5114500;28;20723;-68